Time;durP1;ratioP1;P1;durP2;ratioP2;P2;SDS_P1;SDS_P2;PMS_P1;PMS_P2;Temp;Humidity;BMP_temperature;BMP_pressure;BME280_temperature;BME280_humidity;BME280_pressure;Samples;Min_cycle;Max_cycle;Signal;HPM_P1;HPM_P2
2022/10/10 00:01:52;;;;;;;5.20;4.68;;;;;;;;;;5061614;28;20197;-67
2022/10/10 00:04:19;;;;;;;10.15;5.25;;;;;;;;;;5061886;28;20387;-67
2022/10/10 00:06:45;;;;;;;6.28;5.30;;;;;;;;;;5061693;28;20217;-67
2022/10/10 00:09:11;;;;;;;6.80;5.28;;;;;;;;;;5061157;28;20193;-67
2022/10/10 00:11:38;;;;;;;13.90;5.50;;;;;;;;;;5061667;28;20197;-67
2022/10/10 00:14:06;;;;;;;6.07;5.47;;;;;;;;;;5062031;28;20391;-68
2022/10/10 00:16:32;;;;;;;7.53;5.20;;;;;;;;;;5061983;28;20231;-67
2022/10/10 00:18:58;;;;;;;7.25;5.43;;;;;;;;;;5061266;28;20382;-67
2022/10/10 00:21:25;;;;;;;11.68;5.60;;;;;;;;;;5061671;28;20373;-67
2022/10/10 00:23:51;;;;;;;8.95;5.38;;;;;;;;;;5061654;28;20227;-68
2022/10/10 00:26:18;;;;;;;7.47;5.07;;;;;;;;;;5061340;28;20228;-68
2022/10/10 00:28:44;;;;;;;11.55;5.55;;;;;;;;;;5061138;28;20213;-68
2022/10/10 00:31:11;;;;;;;7.68;5.80;;;;;;;;;;5061475;28;20197;-68
2022/10/10 00:33:38;;;;;;;5.90;5.35;;;;;;;;;;5061544;28;20395;-67
2022/10/10 00:36:04;;;;;;;11.30;6.07;;;;;;;;;;5061605;28;20205;-67
2022/10/10 00:38:31;;;;;;;9.98;6.28;;;;;;;;;;5061020;28;20197;-67
2022/10/10 00:40:57;;;;;;;11.65;7.00;;;;;;;;;;5061408;28;20193;-67
2022/10/10 00:43:25;;;;;;;8.70;6.85;;;;;;;;;;5061312;28;20204;-67
2022/10/10 00:45:52;;;;;;;8.85;6.35;;;;;;;;;;5061509;28;20208;-67
2022/10/10 00:48:20;;;;;;;7.10;6.07;;;;;;;;;;5060849;28;20217;-67
2022/10/10 00:50:50;;;;;;;7.75;6.28;;;;;;;;;;5061223;28;20409;-67
2022/10/10 00:53:17;;;;;;;7.35;6.28;;;;;;;;;;5061580;28;20197;-67
2022/10/10 00:55:44;;;;;;;9.52;6.43;;;;;;;;;;5061231;28;20197;-67
2022/10/10 00:58:12;;;;;;;8.05;6.10;;;;;;;;;;5060732;28;20213;-67
2022/10/10 01:00:38;;;;;;;10.65;6.57;;;;;;;;;;5061090;28;20273;-67
2022/10/10 01:03:05;;;;;;;9.10;6.38;;;;;;;;;;5060894;28;20500;-67
2022/10/10 01:05:33;;;;;;;7.75;5.85;;;;;;;;;;5061207;28;20427;-68
2022/10/10 01:07:59;;;;;;;8.63;5.85;;;;;;;;;;5060575;28;20221;-67
2022/10/10 01:10:26;;;;;;;10.13;6.28;;;;;;;;;;5061477;28;20197;-67
2022/10/10 01:13:03;;;;;;;10.68;6.45;;;;;;;;;;5060963;28;20203;-67
2022/10/10 01:15:36;;;;;;;10.88;6.50;;;;;;;;;;5061178;28;20204;-67
2022/10/10 01:18:07;;;;;;;7.22;6.07;;;;;;;;;;5060897;28;20199;-67
2022/10/10 01:20:52;;;;;;;6.72;5.65;;;;;;;;;;5061010;28;20439;-67
2022/10/10 01:23:34;;;;;;;5.78;5.10;;;;;;;;;;5064101;28;20197;-67
2022/10/10 01:26:04;;;;;;;7.18;5.70;;;;;;;;;;5064510;28;20197;-67
2022/10/10 01:28:36;;;;;;;9.82;5.90;;;;;;;;;;5064021;28;20433;-67
2022/10/10 01:31:04;;;;;;;10.65;5.72;;;;;;;;;;5064687;28;20382;-67
2022/10/10 01:33:32;;;;;;;7.35;5.45;;;;;;;;;;5064399;28;20504;-67
2022/10/10 01:36:03;;;;;;;11.25;5.60;;;;;;;;;;5064223;28;20204;-67
2022/10/10 01:38:31;;;;;;;8.48;5.55;;;;;;;;;;5064100;28;20207;-67
2022/10/10 01:41:03;;;;;;;8.15;5.57;;;;;;;;;;5064211;28;20280;-67
2022/10/10 01:43:29;;;;;;;12.68;5.85;;;;;;;;;;5064539;28;20197;-67
2022/10/10 01:45:57;;;;;;;9.80;5.90;;;;;;;;;;5064284;28;20219;-67
2022/10/10 01:48:25;;;;;;;8.10;5.75;;;;;;;;;;5064012;28;20224;-67
2022/10/10 01:50:59;;;;;;;9.25;5.07;;;;;;;;;;5064006;28;20204;-67
2022/10/10 01:53:30;;;;;;;7.18;4.82;;;;;;;;;;5063910;28;20204;-67
2022/10/10 01:56:02;;;;;;;5.57;5.07;;;;;;;;;;5064004;28;20212;-67
2022/10/10 01:58:37;;;;;;;6.70;5.55;;;;;;;;;;5063529;28;20221;-67
2022/10/10 02:01:08;;;;;;;6.55;5.50;;;;;;;;;;5063961;28;20200;-67
2022/10/10 02:03:36;;;;;;;7.35;5.43;;;;;;;;;;5063864;28;20203;-67
2022/10/10 02:06:07;;;;;;;6.63;5.65;;;;;;;;;;5063671;28;20233;-68
2022/10/10 02:08:34;;;;;;;7.45;5.40;;;;;;;;;;5063329;28;20224;-67
2022/10/10 02:11:03;;;;;;;5.95;5.18;;;;;;;;;;5063709;28;20197;-67
2022/10/10 02:13:32;;;;;;;12.23;5.18;;;;;;;;;;5063705;28;20197;-67
2022/10/10 02:15:59;;;;;;;6.30;5.55;;;;;;;;;;5063573;28;20209;-67
2022/10/10 02:18:28;;;;;;;8.00;5.22;;;;;;;;;;5063212;28;20193;-67
2022/10/10 02:20:55;;;;;;;6.10;5.18;;;;;;;;;;5063608;28;20205;-67
2022/10/10 02:23:21;;;;;;;8.23;5.70;;;;;;;;;;5063495;28;20205;-67
2022/10/10 02:25:50;;;;;;;13.13;5.45;;;;;;;;;;5063511;28;20501;-67
2022/10/10 02:28:19;;;;;;;7.43;5.10;;;;;;;;;;5063131;28;20232;-67
2022/10/10 02:30:46;;;;;;;6.65;5.20;;;;;;;;;;5063337;28;20197;-67
2022/10/10 02:33:15;;;;;;;5.78;5.25;;;;;;;;;;5063016;28;20204;-67
2022/10/10 02:35:47;;;;;;;7.70;5.20;;;;;;;;;;5063163;28;20197;-67
2022/10/10 02:38:15;;;;;;;7.38;5.32;;;;;;;;;;5062885;28;20268;-67
2022/10/10 02:40:42;;;;;;;8.15;5.13;;;;;;;;;;5062909;28;20200;-68
2022/10/10 02:43:09;;;;;;;8.20;5.15;;;;;;;;;;5063108;28;20380;-67
2022/10/10 02:45:36;;;;;;;5.85;5.18;;;;;;;;;;5062905;28;20205;-67
2022/10/10 02:48:03;;;;;;;6.75;5.38;;;;;;;;;;5062953;28;20220;-67
2022/10/10 02:50:30;;;;;;;6.43;5.32;;;;;;;;;;5063023;28;20395;-67
2022/10/10 02:52:58;;;;;;;6.35;4.95;;;;;;;;;;5062779;28;20196;-67
2022/10/10 02:55:25;;;;;;;5.05;4.57;;;;;;;;;;5062856;28;20197;-67
2022/10/10 02:57:51;;;;;;;6.85;5.22;;;;;;;;;;5062335;28;20217;-67
2022/10/10 03:00:18;;;;;;;6.13;5.00;;;;;;;;;;5062645;28;20566;-67
2022/10/10 03:02:45;;;;;;;7.95;5.18;;;;;;;;;;5062590;28;20201;-67
2022/10/10 03:05:11;;;;;;;6.38;5.50;;;;;;;;;;5062700;28;20197;-67
2022/10/10 03:07:37;;;;;;;9.38;5.30;;;;;;;;;;5062258;28;20221;-67
2022/10/10 03:10:06;;;;;;;5.57;5.07;;;;;;;;;;5062475;28;20515;-67
2022/10/10 03:12:32;;;;;;;7.68;4.82;;;;;;;;;;5062516;28;20433;-67
2022/10/10 03:14:59;;;;;;;5.72;5.13;;;;;;;;;;5062420;28;20205;-67
2022/10/10 03:17:25;;;;;;;7.70;5.25;;;;;;;;;;5062327;28;20244;-67
2022/10/10 03:19:51;;;;;;;5.75;5.25;;;;;;;;;;5062217;28;20215;-67
2022/10/10 03:22:17;;;;;;;5.82;5.20;;;;;;;;;;5062457;28;20525;-67
2022/10/10 03:24:44;;;;;;;5.68;4.88;;;;;;;;;;5062308;28;20211;-67
2022/10/10 03:27:11;;;;;;;7.25;5.65;;;;;;;;;;5062061;28;20201;-67
2022/10/10 03:29:38;;;;;;;9.20;5.72;;;;;;;;;;5062672;28;20211;-67
2022/10/10 03:32:04;;;;;;;6.72;4.93;;;;;;;;;;5062104;28;20197;-67
2022/10/10 03:34:30;;;;;;;5.88;5.32;;;;;;;;;;5062225;28;20377;-67
2022/10/10 03:36:56;;;;;;;7.38;5.30;;;;;;;;;;5062222;28;20204;-67
2022/10/10 03:39:23;;;;;;;5.75;4.88;;;;;;;;;;5061826;28;20209;-67
2022/10/10 03:41:50;;;;;;;6.53;5.43;;;;;;;;;;5061844;28;20227;-67
2022/10/10 03:44:17;;;;;;;7.25;5.45;;;;;;;;;;5061710;28;20201;-67
2022/10/10 03:46:44;;;;;;;7.28;5.75;;;;;;;;;;5062048;28;20196;-67
2022/10/10 03:49:10;;;;;;;7.50;6.00;;;;;;;;;;5061552;28;20235;-67
2022/10/10 03:51:36;;;;;;;6.47;5.30;;;;;;;;;;5061992;28;20203;-67
2022/10/10 03:54:03;;;;;;;7.63;5.85;;;;;;;;;;5061811;28;20394;-67
2022/10/10 03:56:29;;;;;;;7.03;5.60;;;;;;;;;;5061747;28;20392;-67
2022/10/10 03:58:59;;;;;;;7.70;5.57;;;;;;;;;;5061733;28;20219;-67
2022/10/10 04:01:27;;;;;;;7.57;5.70;;;;;;;;;;5061741;28;20200;-67
2022/10/10 04:03:53;;;;;;;6.68;5.15;;;;;;;;;;5061740;28;20388;-67
2022/10/10 04:06:19;;;;;;;10.45;6.45;;;;;;;;;;5061674;28;20200;-67
2022/10/10 04:08:46;;;;;;;10.00;6.13;;;;;;;;;;5061272;28;20220;-67
2022/10/10 04:11:12;;;;;;;7.50;6.20;;;;;;;;;;5061528;28;20197;-67
2022/10/10 04:13:38;;;;;;;11.18;7.32;;;;;;;;;;5061777;28;20204;-67
2022/10/10 04:16:05;;;;;;;9.13;6.22;;;;;;;;;;5061505;28;20269;-67
2022/10/10 04:18:32;;;;;;;10.52;6.10;;;;;;;;;;5061430;28;20201;-67
2022/10/10 04:21:01;;;;;;;6.95;6.22;;;;;;;;;;5061532;28;20203;-67
2022/10/10 04:23:27;;;;;;;7.85;7.05;;;;;;;;;;5061308;28;20193;-67
2022/10/10 04:25:54;;;;;;;8.27;6.60;;;;;;;;;;5061671;28;20224;-67
2022/10/10 04:28:20;;;;;;;8.80;6.32;;;;;;;;;;5061192;28;20216;-67
2022/10/10 04:30:46;;;;;;;8.77;6.72;;;;;;;;;;5061475;28;20205;-67
2022/10/10 04:33:13;;;;;;;8.50;6.47;;;;;;;;;;5061443;28;20197;-67
2022/10/10 04:35:40;;;;;;;8.35;7.07;;;;;;;;;;5061470;28;20231;-67
2022/10/10 04:38:07;;;;;;;7.10;6.28;;;;;;;;;;5060910;28;20219;-67
2022/10/10 04:40:35;;;;;;;6.50;5.90;;;;;;;;;;5061439;28;20193;-67
2022/10/10 04:43:01;;;;;;;8.20;6.25;;;;;;;;;;5061366;28;20526;-67
2022/10/10 04:45:27;;;;;;;11.65;6.20;;;;;;;;;;5061443;28;20428;-67
2022/10/10 04:47:54;;;;;;;10.55;6.10;;;;;;;;;;5061028;28;20216;-67
2022/10/10 04:50:20;;;;;;;8.48;6.40;;;;;;;;;;5061277;28;20272;-67
2022/10/10 04:52:48;;;;;;;8.85;6.75;;;;;;;;;;5061093;28;20197;-67
2022/10/10 04:55:15;;;;;;;7.78;6.53;;;;;;;;;;5061222;28;20201;-67
2022/10/10 04:57:41;;;;;;;9.48;6.43;;;;;;;;;;5063868;28;20213;-67
2022/10/10 05:00:08;;;;;;;7.57;6.38;;;;;;;;;;5065149;28;20559;-67
2022/10/10 05:02:34;;;;;;;8.43;6.63;;;;;;;;;;5065458;28;20394;-67
2022/10/10 05:05:01;;;;;;;10.18;6.93;;;;;;;;;;5064809;28;20201;-67
2022/10/10 05:07:27;;;;;;;10.00;6.40;;;;;;;;;;5064320;28;20220;-67
2022/10/10 05:09:54;;;;;;;6.63;6.03;;;;;;;;;;5064919;28;20425;-67
2022/10/10 05:12:21;;;;;;;8.55;7.38;;;;;;;;;;5064802;28;20193;-67
2022/10/10 05:14:47;;;;;;;9.88;7.50;;;;;;;;;;5064610;28;20547;-70
2022/10/10 05:17:13;;;;;;;10.70;6.90;;;;;;;;;;5064407;28;20414;-70
2022/10/10 05:19:39;;;;;;;7.38;6.40;;;;;;;;;;5064328;28;20278;-70
2022/10/10 05:22:06;;;;;;;10.38;7.50;;;;;;;;;;5064197;28;20197;-70
2022/10/10 05:24:32;;;;;;;12.75;7.53;;;;;;;;;;5064198;28;20204;-70
2022/10/10 05:27:00;;;;;;;17.58;7.63;;;;;;;;;;5064340;28;20515;-70
2022/10/10 05:29:26;;;;;;;14.70;6.93;;;;;;;;;;5063870;28;20227;-70
2022/10/10 05:31:52;;;;;;;8.98;6.90;;;;;;;;;;5064258;28;20205;-70
2022/10/10 05:34:18;;;;;;;7.55;6.35;;;;;;;;;;5064096;28;20236;-70
2022/10/10 05:36:45;;;;;;;9.95;6.80;;;;;;;;;;5063970;28;20201;-70
2022/10/10 05:39:11;;;;;;;8.38;6.78;;;;;;;;;;5063877;28;20194;-70
2022/10/10 05:41:37;;;;;;;11.40;7.43;;;;;;;;;;5063978;28;20296;-70
2022/10/10 05:44:05;;;;;;;10.27;7.22;;;;;;;;;;5063845;28;20197;-70
2022/10/10 05:46:31;;;;;;;13.77;7.57;;;;;;;;;;5063897;28;20273;-70
2022/10/10 05:48:57;;;;;;;9.77;7.15;;;;;;;;;;5063396;28;20427;-70
2022/10/10 05:51:24;;;;;;;13.25;7.50;;;;;;;;;;5063950;28;20197;-70
2022/10/10 05:53:50;;;;;;;13.07;7.72;;;;;;;;;;5063848;28;20197;-70
2022/10/10 05:56:16;;;;;;;16.80;8.15;;;;;;;;;;5048190;28;20301;-70
2022/10/10 05:58:43;;;;;;;13.77;7.82;;;;;;;;;;5047161;28;20421;-69
2022/10/10 06:01:11;;;;;;;10.50;6.38;;;;;;;;;;5049597;28;20224;-71
2022/10/10 06:03:37;;;;;;;7.78;6.43;;;;;;;;;;5053585;28;20416;-70
2022/10/10 06:06:04;;;;;;;7.32;6.63;;;;;;;;;;5057765;28;20212;-70
2022/10/10 06:08:31;;;;;;;10.98;7.20;;;;;;;;;;5056569;28;20564;-69
2022/10/10 06:11:01;;;;;;;10.65;6.75;;;;;;;;;;5053793;28;20232;-69
2022/10/10 06:13:27;;;;;;;10.02;7.03;;;;;;;;;;5053514;28;20316;-70
2022/10/10 06:15:53;;;;;;;14.18;7.28;;;;;;;;;;5054862;28;20223;-69
2022/10/10 06:18:21;;;;;;;12.77;7.47;;;;;;;;;;5051725;28;20209;-69
2022/10/10 06:20:47;;;;;;;11.75;7.28;;;;;;;;;;5054707;28;20392;-70
2022/10/10 06:23:14;;;;;;;8.27;7.10;;;;;;;;;;5054641;28;20213;-70
2022/10/10 06:25:40;;;;;;;10.88;7.22;;;;;;;;;;5054779;28;20220;-70
2022/10/10 06:28:06;;;;;;;7.68;6.95;;;;;;;;;;5053220;28;20561;-70
2022/10/10 06:30:33;;;;;;;13.25;7.88;;;;;;;;;;5054637;28;20219;-70
2022/10/10 06:33:00;;;;;;;11.30;7.88;;;;;;;;;;5054810;28;20221;-70
2022/10/10 06:35:28;;;;;;;15.93;8.27;;;;;;;;;;5055501;28;20401;-70
2022/10/10 06:37:54;;;;;;;13.70;8.40;;;;;;;;;;5053214;28;20288;-71
2022/10/10 06:40:21;;;;;;;9.45;6.85;;;;;;;;;;5054129;28;20205;-70
2022/10/10 06:42:47;;;;;;;10.45;7.20;;;;;;;;;;5054772;28;20425;-70
2022/10/10 06:45:13;;;;;;;13.90;7.72;;;;;;;;;;5054947;28;20561;-70
2022/10/10 06:47:40;;;;;;;10.73;8.25;;;;;;;;;;5054089;28;20213;-70
2022/10/10 06:50:07;;;;;;;10.18;7.60;;;;;;;;;;5054145;28;20320;-69
2022/10/10 06:52:35;;;;;;;10.85;7.63;;;;;;;;;;5054514;28;20215;-69
2022/10/10 06:55:01;;;;;;;9.65;8.50;;;;;;;;;;5054879;28;20219;-70
2022/10/10 06:57:27;;;;;;;18.92;8.18;;;;;;;;;;5052203;28;20482;-70
2022/10/10 06:59:54;;;;;;;11.63;9.32;;;;;;;;;;5053228;28;20413;-69
2022/10/10 07:02:22;;;;;;;13.43;9.05;;;;;;;;;;5053782;28;20213;-69
2022/10/10 07:04:48;;;;;;;10.30;8.75;;;;;;;;;;5054430;28;20463;-69
2022/10/10 07:07:14;;;;;;;14.05;9.02;;;;;;;;;;5052832;28;20216;-71
2022/10/10 07:09:42;;;;;;;15.93;8.98;;;;;;;;;;5054434;28;20236;-69
2022/10/10 07:12:09;;;;;;;13.45;9.50;;;;;;;;;;5053405;28;20213;-69
2022/10/10 07:14:35;;;;;;;18.17;9.70;;;;;;;;;;5054719;28;20388;-69
2022/10/10 07:17:02;;;;;;;16.30;8.98;;;;;;;;;;5054356;28;20213;-69
2022/10/10 07:19:28;;;;;;;13.95;9.52;;;;;;;;;;5049724;28;20219;-69
2022/10/10 07:21:54;;;;;;;21.20;10.20;;;;;;;;;;5054185;28;20213;-69
2022/10/10 07:24:20;;;;;;;16.27;9.38;;;;;;;;;;5053917;28;20430;-70
2022/10/10 07:26:51;;;;;;;17.60;9.18;;;;;;;;;;5052695;28;20212;-70
2022/10/10 07:29:17;;;;;;;14.85;9.10;;;;;;;;;;5053912;28;20235;-70
2022/10/10 07:31:44;;;;;;;17.27;9.98;;;;;;;;;;5053325;28;20416;-69
2022/10/10 07:34:10;;;;;;;14.05;10.07;;;;;;;;;;5053432;28;20235;-69
2022/10/10 07:36:37;;;;;;;14.25;9.02;;;;;;;;;;5054332;28;20217;-69
2022/10/10 07:39:03;;;;;;;16.92;9.88;;;;;;;;;;5053754;28;20243;-69
2022/10/10 07:41:29;;;;;;;15.75;9.80;;;;;;;;;;5054474;28;20539;-69
2022/10/10 07:43:57;;;;;;;14.27;9.43;;;;;;;;;;5054267;28;20534;-69
2022/10/10 07:46:24;;;;;;;13.23;9.35;;;;;;;;;;5053891;28;20213;-69
2022/10/10 07:48:50;;;;;;;21.63;9.55;;;;;;;;;;5053711;28;20225;-69
2022/10/10 07:51:16;;;;;;;12.27;9.88;;;;;;;;;;5051392;28;20209;-69
2022/10/10 07:53:43;;;;;;;15.13;10.35;;;;;;;;;;5053651;28;20212;-69
2022/10/10 07:56:10;;;;;;;12.68;9.93;;;;;;;;;;5054408;28;20216;-70
2022/10/10 07:58:36;;;;;;;9.90;8.90;;;;;;;;;;5053307;28;20431;-70
2022/10/10 08:01:05;;;;;;;11.77;8.80;;;;;;;;;;5051720;28;20213;-70
2022/10/10 08:03:31;;;;;;;12.35;8.35;;;;;;;;;;5053158;28;20217;-70
2022/10/10 08:05:57;;;;;;;10.30;8.15;;;;;;;;;;5053425;28;20255;-69
2022/10/10 08:08:24;;;;;;;11.13;7.82;;;;;;;;;;5052664;28;20216;-70
2022/10/10 08:10:50;;;;;;;11.35;7.80;;;;;;;;;;5050782;28;20213;-70
2022/10/10 08:13:16;;;;;;;11.10;8.70;;;;;;;;;;5052962;28;20220;-70
2022/10/10 08:15:42;;;;;;;12.13;7.65;;;;;;;;;;5054250;28;20567;-70
2022/10/10 08:18:10;;;;;;;8.82;7.45;;;;;;;;;;5052464;28;20212;-70
2022/10/10 08:20:36;;;;;;;8.75;7.13;;;;;;;;;;5051740;28;20231;-70
2022/10/10 08:23:03;;;;;;;10.15;7.32;;;;;;;;;;5053078;28;20225;-70
2022/10/10 08:25:29;;;;;;;10.48;8.57;;;;;;;;;;5053738;28;20216;-70
2022/10/10 08:27:55;;;;;;;10.02;7.45;;;;;;;;;;5052781;28;20219;-70
2022/10/10 08:30:21;;;;;;;8.27;7.45;;;;;;;;;;5051649;28;20233;-71
2022/10/10 08:32:48;;;;;;;13.25;7.55;;;;;;;;;;5056666;28;20215;-71
2022/10/10 08:35:15;;;;;;;8.48;7.68;;;;;;;;;;5057010;28;20455;-71
2022/10/10 08:37:42;;;;;;;9.73;6.75;;;;;;;;;;5056460;28;20564;-69
2022/10/10 08:40:10;;;;;;;11.57;6.97;;;;;;;;;;5053338;28;20213;-70
2022/10/10 08:42:38;;;;;;;10.52;6.88;;;;;;;;;;5056725;28;20216;-70
2022/10/10 08:45:08;;;;;;;8.52;7.25;;;;;;;;;;5056692;28;20221;-70
2022/10/10 08:47:37;;;;;;;9.68;7.15;;;;;;;;;;5056446;28;20278;-70
2022/10/10 08:50:05;;;;;;;10.55;7.28;;;;;;;;;;5052591;28;20564;-71
2022/10/10 08:52:37;;;;;;;8.05;6.72;;;;;;;;;;5056793;28;20219;-70
2022/10/10 08:55:06;;;;;;;8.18;7.45;;;;;;;;;;5056797;28;20212;-70
2022/10/10 08:57:34;;;;;;;8.25;7.45;;;;;;;;;;5056332;28;20248;-70
2022/10/10 09:00:02;;;;;;;20.10;9.30;;;;;;;;;;5058103;28;20231;-69
2022/10/10 09:02:32;;;;;;;10.35;7.50;;;;;;;;;;5056409;28;20497;-70
2022/10/10 09:04:59;;;;;;;11.57;7.70;;;;;;;;;;5056052;28;20606;-70
2022/10/10 09:07:33;;;;;;;9.73;7.18;;;;;;;;;;5054949;28;20231;-70
2022/10/10 09:10:05;;;;;;;13.13;7.18;;;;;;;;;;5056900;28;20224;-70
2022/10/10 09:12:34;;;;;;;8.63;7.15;;;;;;;;;;5053795;28;20216;-70
2022/10/10 09:15:03;;;;;;;11.02;7.20;;;;;;;;;;5055855;28;20472;-69
2022/10/10 09:17:35;;;;;;;13.95;7.32;;;;;;;;;;5056701;28;20219;-70
2022/10/10 09:20:07;;;;;;;12.02;7.45;;;;;;;;;;5055899;28;20582;-70
2022/10/10 09:22:36;;;;;;;9.55;6.82;;;;;;;;;;5053591;28;20217;-70
2022/10/10 09:25:06;;;;;;;10.70;6.97;;;;;;;;;;5055156;28;20217;-70
2022/10/10 09:27:35;;;;;;;15.05;8.07;;;;;;;;;;5056108;28;20232;-70
2022/10/10 09:30:04;;;;;;;8.30;7.50;;;;;;;;;;5056501;28;20254;-70
2022/10/10 09:32:31;;;;;;;12.10;7.28;;;;;;;;;;5056376;28;20215;-70
2022/10/10 09:35:00;;;;;;;10.07;6.45;;;;;;;;;;5056609;28;20421;-71
2022/10/10 09:37:30;;;;;;;8.20;6.30;;;;;;;;;;5055713;28;20236;-71
2022/10/10 09:39:59;;;;;;;11.40;6.90;;;;;;;;;;5055832;28;20213;-70
2022/10/10 09:42:29;;;;;;;7.70;6.88;;;;;;;;;;5052804;28;20484;-70
2022/10/10 09:44:55;;;;;;;10.13;6.57;;;;;;;;;;5056172;28;20430;-70
2022/10/10 09:47:21;;;;;;;10.27;6.10;;;;;;;;;;5055566;28;20220;-71
2022/10/10 09:49:47;;;;;;;9.75;6.07;;;;;;;;;;5055215;28;20248;-71
2022/10/10 09:52:22;;;;;;;6.88;5.75;;;;;;;;;;5054630;28;20217;-70
2022/10/10 09:54:49;;;;;;;9.18;6.88;;;;;;;;;;5055429;28;20407;-57
2022/10/10 09:57:16;;;;;;;10.07;6.43;;;;;;;;;;5055413;28;20296;-57
2022/10/10 09:59:45;;;;;;;6.65;5.90;;;;;;;;;;5054735;28;20284;-56
2022/10/10 10:02:13;;;;;;;8.00;5.97;;;;;;;;;;5053579;28;20219;-58
2022/10/10 10:04:39;;;;;;;11.40;5.60;;;;;;;;;;5055273;28;20220;-55
2022/10/10 10:07:07;;;;;;;7.10;5.82;;;;;;;;;;5055371;28;20424;-56
2022/10/10 10:09:34;;;;;;;12.13;6.32;;;;;;;;;;5054670;28;20425;-56
2022/10/10 10:12:01;;;;;;;6.70;5.78;;;;;;;;;;5056083;28;20220;-58
2022/10/10 10:14:29;;;;;;;8.77;5.90;;;;;;;;;;5055249;28;20209;-57
2022/10/10 10:17:06;;;;;;;6.22;5.63;;;;;;;;;;5055992;28;20213;-58
2022/10/10 10:19:33;;;;;;;10.55;5.43;;;;;;;;;;5055678;28;20212;-57
2022/10/10 10:21:59;;;;;;;10.55;6.03;;;;;;;;;;5051206;28;20528;-57
2022/10/10 10:24:29;;;;;;;10.00;5.60;;;;;;;;;;5055103;28;20220;-57
2022/10/10 10:26:56;;;;;;;9.32;5.90;;;;;;;;;;5055339;28;20204;-57
2022/10/10 10:29:29;;;;;;;6.97;5.47;;;;;;;;;;5054612;28;20213;-58
2022/10/10 10:32:00;;;;;;;7.45;6.13;;;;;;;;;;5053580;28;20220;-56
2022/10/10 10:34:44;;;;;;;8.95;5.90;;;;;;;;;;5054968;28;20524;-57
2022/10/10 10:37:16;;;;;;;8.65;5.35;;;;;;;;;;5054809;28;20219;-56
2022/10/10 10:39:46;;;;;;;9.10;5.70;;;;;;;;;;5054997;28;20209;-58
2022/10/10 10:42:17;;;;;;;11.18;5.95;;;;;;;;;;5053541;28;20547;-57
2022/10/10 10:44:49;;;;;;;6.68;5.97;;;;;;;;;;5054720;28;20217;-57
2022/10/10 10:47:26;;;;;;;12.35;5.78;;;;;;;;;;5054286;28;20217;-58
2022/10/10 10:49:57;;;;;;;10.88;6.03;;;;;;;;;;5055241;28;20221;-57
2022/10/10 10:52:34;;;;;;;6.43;5.70;;;;;;;;;;5053641;28;20527;-57
2022/10/10 10:55:08;;;;;;;10.75;5.55;;;;;;;;;;5055198;28;20213;-57
2022/10/10 10:57:39;;;;;;;8.93;5.53;;;;;;;;;;5054174;28;20224;-57
2022/10/10 11:00:08;;;;;;;8.13;5.13;;;;;;;;;;5051845;28;20209;-57
2022/10/10 11:02:40;;;;;;;8.63;5.40;;;;;;;;;;5054091;28;20221;-58
2022/10/10 11:05:24;;;;;;;13.98;5.30;;;;;;;;;;5054476;28;20519;-57
2022/10/10 11:07:56;;;;;;;8.07;5.03;;;;;;;;;;5053922;28;20220;-58
2022/10/10 11:10:26;;;;;;;9.43;4.60;;;;;;;;;;5052634;28;20232;-57
2022/10/10 11:12:57;;;;;;;7.03;4.25;;;;;;;;;;5053065;28;20224;-56
2022/10/10 11:15:25;;;;;;;9.30;4.75;;;;;;;;;;5054906;28;20213;-58
2022/10/10 11:17:55;;;;;;;6.72;3.80;;;;;;;;;;5053939;28;20243;-58
2022/10/10 11:20:23;;;;;;;7.20;4.35;;;;;;;;;;5051920;28;20216;-57
2022/10/10 11:22:52;;;;;;;4.80;3.78;;;;;;;;;;5053425;28;20237;-58
2022/10/10 11:25:22;;;;;;;4.72;3.90;;;;;;;;;;5053790;28;20213;-58
2022/10/10 11:27:51;;;;;;;5.90;4.10;;;;;;;;;;5053212;28;20292;-58
2022/10/10 11:30:21;;;;;;;6.25;3.97;;;;;;;;;;5054149;28;20225;-58
2022/10/10 11:32:51;;;;;;;6.45;3.97;;;;;;;;;;5053682;28;20213;-57
2022/10/10 11:35:23;;;;;;;7.57;3.90;;;;;;;;;;5053526;28;20224;-58
2022/10/10 11:37:52;;;;;;;6.13;3.35;;;;;;;;;;5052211;28;20219;-58
2022/10/10 11:40:25;;;;;;;6.82;3.85;;;;;;;;;;5050993;28;20743;-58
2022/10/10 11:42:55;;;;;;;3.72;3.30;;;;;;;;;;5053196;28;20374;-58
2022/10/10 11:45:23;;;;;;;5.57;3.45;;;;;;;;;;5053666;28;20217;-56
2022/10/10 11:47:53;;;;;;;5.00;2.85;;;;;;;;;;5053024;28;20211;-58
2022/10/10 11:50:23;;;;;;;7.75;3.42;;;;;;;;;;5051100;28;20232;-57
2022/10/10 11:52:52;;;;;;;5.90;3.00;;;;;;;;;;5053258;28;20235;-57
2022/10/10 11:55:21;;;;;;;3.88;2.60;;;;;;;;;;5053127;28;20314;-57
2022/10/10 11:57:49;;;;;;;3.65;2.42;;;;;;;;;;5052653;28;20465;-58
2022/10/10 12:00:17;;;;;;;7.50;2.83;;;;;;;;;;5052676;28;20550;-57
2022/10/10 12:02:44;;;;;;;4.45;2.60;;;;;;;;;;5052939;28;20212;-57
2022/10/10 12:05:19;;;;;;;4.45;2.40;;;;;;;;;;5052840;28;20400;-57
2022/10/10 12:07:56;;;;;;;5.47;2.30;;;;;;;;;;5053302;28;20239;-58
2022/10/10 12:10:24;;;;;;;10.73;2.70;;;;;;;;;;5051271;28;20782;-58
2022/10/10 12:12:52;;;;;;;4.70;2.67;;;;;;;;;;5052316;28;20213;-58
2022/10/10 12:15:26;;;;;;;9.80;2.47;;;;;;;;;;5054300;28;20216;-58
2022/10/10 12:17:52;;;;;;;6.75;2.47;;;;;;;;;;5052152;28;20228;-57
2022/10/10 12:20:31;;;;;;;6.13;2.15;;;;;;;;;;5051283;28;20215;-57
2022/10/10 12:23:15;;;;;;;9.13;2.15;;;;;;;;;;5052577;28;20220;-57
2022/10/10 12:25:44;;;;;;;4.07;2.08;;;;;;;;;;5052612;28;20243;-57
2022/10/10 12:28:23;;;;;;;6.95;2.20;;;;;;;;;;5053227;28;20212;-57
2022/10/10 12:31:08;;;;;;;9.32;2.10;;;;;;;;;;5050334;28;20259;-58
2022/10/10 12:33:49;;;;;;;8.02;2.30;;;;;;;;;;5051860;28;20243;-57
2022/10/10 12:36:49;;;;;;;5.65;2.20;;;;;;;;;;5051602;28;20212;-57
2022/10/10 12:39:34;;;;;;;7.90;2.67;;;;;;;;;;4990927;28;20449;-56
2022/10/10 12:42:00;;;;;;;8.88;2.67;;;;;;;;;;4990025;28;20368;-57
2022/10/10 12:44:42;;;;;;;7.57;2.30;;;;;;;;;;5025615;28;20212;-56
2022/10/10 12:47:26;;;;;;;8.07;2.38;;;;;;;;;;5051832;28;20232;-57
2022/10/10 12:49:54;;;;;;;9.15;2.10;;;;;;;;;;5052197;28;20783;-58
2022/10/10 12:52:21;;;;;;;4.30;2.05;;;;;;;;;;5051426;28;20508;-59
2022/10/10 12:54:49;;;;;;;8.38;2.63;;;;;;;;;;5052580;28;20489;-59
2022/10/10 12:57:18;;;;;;;5.95;2.80;;;;;;;;;;5051517;28;20547;-56
2022/10/10 12:59:45;;;;;;;6.97;1.98;;;;;;;;;;5052126;28;20422;-56
2022/10/10 13:02:15;;;;;;;12.32;2.67;;;;;;;;;;5048894;28;20461;-56
2022/10/10 13:04:42;;;;;;;12.30;3.50;;;;;;;;;;5052304;28;20220;-57
2022/10/10 13:07:14;;;;;;;11.93;3.70;;;;;;;;;;5051668;28;20220;-57
2022/10/10 13:09:40;;;;;;;7.82;2.85;;;;;;;;;;5053271;28;20439;-56
2022/10/10 13:12:20;;;;;;;6.70;2.92;;;;;;;;;;5049908;28;20430;-57
2022/10/10 13:14:46;;;;;;;8.98;3.10;;;;;;;;;;5052420;28;20213;-57
2022/10/10 13:17:20;;;;;;;11.23;2.53;;;;;;;;;;5052831;28;20235;-57
2022/10/10 13:19:46;;;;;;;6.63;2.13;;;;;;;;;;5056592;28;20663;-58
2022/10/10 13:22:12;;;;;;;8.00;2.60;;;;;;;;;;5054112;28;20204;-58
2022/10/10 13:24:39;;;;;;;6.68;2.13;;;;;;;;;;5055744;28;20531;-58
2022/10/10 13:27:05;;;;;;;5.00;2.20;;;;;;;;;;5055517;28;20212;-58
2022/10/10 13:29:33;;;;;;;11.43;2.70;;;;;;;;;;5056408;28;20213;-55
2022/10/10 13:32:01;;;;;;;9.00;2.83;;;;;;;;;;5057072;28;20232;-57
2022/10/10 13:34:28;;;;;;;9.75;2.85;;;;;;;;;;5055022;28;20547;-57
2022/10/10 13:36:56;;;;;;;13.50;2.95;;;;;;;;;;5056341;28;20216;-57
2022/10/10 13:39:22;;;;;;;15.70;3.03;;;;;;;;;;5055696;28;20219;-58
2022/10/10 13:41:49;;;;;;;9.80;2.90;;;;;;;;;;5053748;28;20213;-57
2022/10/10 13:44:16;;;;;;;9.70;2.70;;;;;;;;;;5055658;28;20516;-58
2022/10/10 13:46:44;;;;;;;7.55;2.20;;;;;;;;;;5055804;28;20215;-57
2022/10/10 13:49:19;;;;;;;11.88;2.85;;;;;;;;;;5055603;28;20419;-58
2022/10/10 13:51:46;;;;;;;11.15;2.75;;;;;;;;;;5055337;28;20239;-58
2022/10/10 13:54:30;;;;;;;16.55;2.63;;;;;;;;;;5055853;28;20211;-58
2022/10/10 13:57:01;;;;;;;14.73;3.08;;;;;;;;;;5054332;28;20215;-58
2022/10/10 13:59:28;;;;;;;10.75;2.55;;;;;;;;;;5055510;28;20216;-58
2022/10/10 14:01:59;;;;;;;12.95;3.17;;;;;;;;;;5053076;28;20210;-58
2022/10/10 14:04:27;;;;;;;11.13;2.60;;;;;;;;;;5054458;28;20205;-56
2022/10/10 14:06:56;;;;;;;9.60;2.58;;;;;;;;;;5054107;28;20212;-57
2022/10/10 14:09:25;;;;;;;11.30;2.88;;;;;;;;;;5054766;28;20448;-58
2022/10/10 14:11:52;;;;;;;8.60;2.70;;;;;;;;;;5051465;28;20243;-57
2022/10/10 14:14:20;;;;;;;11.27;3.13;;;;;;;;;;5055489;28;20213;-57
2022/10/10 14:16:57;;;;;;;12.52;3.00;;;;;;;;;;5054890;28;20219;-57
2022/10/10 14:19:24;;;;;;;11.52;2.70;;;;;;;;;;5053890;28;20571;-59
2022/10/10 14:21:50;;;;;;;22.52;3.05;;;;;;;;;;5053128;28;20404;-60
2022/10/10 14:24:16;;;;;;;10.85;2.90;;;;;;;;;;5054659;28;20216;-57
2022/10/10 14:26:43;;;;;;;10.77;3.10;;;;;;;;;;5054877;28;20212;-60
2022/10/10 14:29:11;;;;;;;15.27;2.78;;;;;;;;;;5055191;28;20405;-59
2022/10/10 14:31:37;;;;;;;12.55;2.80;;;;;;;;;;5053269;28;20547;-60
2022/10/10 14:34:05;;;;;;;10.13;2.17;;;;;;;;;;5055654;28;20212;-60
2022/10/10 14:36:31;;;;;;;14.38;2.72;;;;;;;;;;5055421;28;20439;-60
2022/10/10 14:38:57;;;;;;;6.43;2.30;;;;;;;;;;5055117;28;20219;-60
2022/10/10 14:41:24;;;;;;;13.90;2.83;;;;;;;;;;5053116;28;20209;-60
2022/10/10 14:43:50;;;;;;;15.05;2.55;;;;;;;;;;5055515;28;20217;-60
2022/10/10 14:46:17;;;;;;;10.73;2.70;;;;;;;;;;5055118;28;20219;-60